Colombo Express — DIHC — position and weather

sailwx.info

Track history (hours):
 
Tides and Currents Weather Stations Pressure Air Temp Water Temp Dewpoint Dewpoint Depression Visibility Wind Speed Wind Dir Waves Ship Positions

Colombo Express

Last reported at 2017-Mar-30 01:34 UTC. Time now 2017-Mar-30 04:54 UTC.
Position N 50°54' W 001°27'.

Length 335.5 m; beam 42.8 m; draft 14.6 m.

Type: Ship. MMSI: 211433000.

Date/timePositionNaut miles runAvg speedWind from/ knotsBaromVisibWave heightAir tempDewpointWater temp
2017-Mar-30 01:34N 50°54' W 001°27'0 0.0
2017-Mar-29 15:18N 50°54' W 001°27'1 0.9
2017-Mar-29 14:34N 50°54' W 001°26'8 8.1
2017-Mar-29 13:34N 50°48' W 001°18'1313.5
2017-Mar-29 12:34N 50°43' W 000°58'9 9.0
2017-Mar-29 11:34N 50°34' W 001°01'0 0.1
2017-Mar-29 10:32N 50°34' W 001°01'0 0.0
2017-Mar-29 09:29N 50°34' W 001°01'0 0.0
2017-Mar-29 08:32N 50°34' W 001°01'0 0.0
2017-Mar-29 07:32N 50°34' W 001°01'0 0.0
2017-Mar-29 06:32N 50°34' W 001°01'0 0.1
2017-Mar-29 05:32N 50°34' W 001°01'0 0.1
2017-Mar-29 04:29N 50°34' W 001°01'0 0.0
2017-Mar-29 03:32N 50°34' W 001°01'0 0.0
2017-Mar-29 02:32N 50°34' W 001°01'0 0.0
2017-Mar-29 01:32N 50°34' W 001°01'0 0.0
2017-Mar-29 00:32N 50°34' W 001°01'0 0.2
2017-Mar-28 23:32N 50°34' W 001°01'0 0.0
2017-Mar-28 22:31N 50°34' W 001°01'0 0.0
2017-Mar-28 21:31N 50°34' W 001°01'0 0.0
2017-Mar-28 20:31N 50°34' W 001°01'0 0.0
2017-Mar-28 19:31N 50°34' W 001°01'0 0.0
2017-Mar-28 18:31N 50°34' W 001°01'0 0.1
2017-Mar-28 17:31N 50°34' W 001°01'0 0.1
2017-Mar-28 16:31N 50°34' W 001°01'0 0.0
2017-Mar-28 15:31N 50°34' W 001°01'0 0.0
2017-Mar-28 14:31N 50°34' W 001°01'0 0.0
2017-Mar-28 13:31N 50°34' W 001°01'0 0.0
2017-Mar-28 12:31N 50°34' W 001°01'0 0.1
2017-Mar-28 11:31N 50°34' W 001°01'0 0.0
2017-Mar-28 10:32N 50°34' W 001°01'0 0.0
2017-Mar-28 09:32N 50°34' W 001°01'0 0.0
2017-Mar-28 08:32N 50°34' W 001°01'0 0.0
2017-Mar-28 07:32N 50°34' W 001°01'0 0.0
2017-Mar-28 06:31N 50°34' W 001°01'0 0.1
2017-Mar-28 05:33N 50°34' W 001°01'0 0.1
2017-Mar-28 04:31N 50°34' W 001°01'0 0.0
2017-Mar-28 03:34N 50°34' W 001°01'4 4.0
2017-Mar-28 02:33N 50°32' W 000°55'2019.8
2017-Mar-28 01:33N 50°33' W 000°24'1919.2
2017-Mar-28 00:33N 50°33' E 000°06'1818.5
2017-Mar-27 23:33N 50°37' E 000°35'1717.4
2017-Mar-27 22:33N 50°47' E 000°56'1717.3
2017-Mar-27 21:33N 50°59' E 001°17'2019.6
2017-Mar-27 20:33N 51°11' E 001°41'2120.6
2017-Mar-27 19:33N 51°28' E 001°59'2020.0
2017-Mar-27 18:33N 51°43' E 002°21'1919.0
2017-Mar-27 17:33N 51°58' E 002°41'1817.6
2017-Mar-27 16:33N 52°11' E 002°60'1716.7
2017-Mar-27 15:32N 52°25' E 003°16'1616.2
2017-Mar-27 14:32N 52°38' E 003°31'1616.4
2017-Mar-27 13:33N 52°50' E 003°49'1817.6
2017-Mar-27 12:33N 53°03' E 004°09'1818.4
2017-Mar-27 11:33N 53°16' E 004°29'1717.4
2017-Mar-27 10:33N 53°31' E 004°46'1818.2
2017-Mar-27 09:33N 53°38' E 005°14'1717.0
2017-Mar-27 08:33N 53°43' E 005°41'1616.3
2017-Mar-27 07:33N 53°48' E 006°08'1616.3
2017-Mar-27 06:33N 53°52' E 006°34'1716.9
2017-Mar-27 05:32N 53°57' E 007°03'1818.0
2017-Mar-27 04:33N 54°01' E 007°32'1918.6
2017-Mar-27 03:33N 54°01' E 008°03'1818.4
2017-Mar-27 02:33N 53°58' E 008°34'1514.6
2017-Mar-27 01:34N 53°51' E 008°56'1211.8
2017-Mar-27 00:33N 53°52' E 009°15'1212.2
2017-Mar-26 23:34N 53°43' E 009°28'10 9.8
2017-Mar-26 22:33N 53°35' E 009°38'8 7.6
2017-Mar-26 21:33N 53°33' E 009°50'4 3.9
2017-Mar-26 20:33N 53°32' E 009°56'2 1.8
2017-Mar-26 19:32N 53°30' E 009°56'0 0.0
2017-Mar-26 18:32N 53°30' E 009°56'0 0.0
2017-Mar-26 17:32N 53°30' E 009°56'0 0.0
2017-Mar-26 16:32N 53°30' E 009°56'0 0.0
2017-Mar-26 15:32N 53°30' E 009°56'0 0.0
2017-Mar-26 14:32N 53°30' E 009°56'0 0.0
2017-Mar-26 13:32N 53°30' E 009°56'0 0.0
2017-Mar-26 12:32N 53°30' E 009°56'0 0.0
2017-Mar-26 11:32N 53°30' E 009°56'0 0.0
2017-Mar-26 10:32N 53°30' E 009°56'0 0.0
2017-Mar-26 09:32N 53°30' E 009°56'0 0.0
2017-Mar-26 08:32N 53°30' E 009°56'0 0.0
2017-Mar-26 07:32N 53°30' E 009°56'0 0.0
2017-Mar-26 06:32N 53°30' E 009°56'0 0.0
2017-Mar-26 05:32N 53°30' E 009°56'0 0.1
2017-Mar-26 04:32N 53°30' E 009°56'0 0.1
2017-Mar-26 03:32N 53°30' E 009°56'0 0.0
2017-Mar-26 02:32N 53°30' E 009°56'0 0.0
2017-Mar-26 01:32N 53°30' E 009°56'0 0.0
2017-Mar-26 00:32N 53°30' E 009°56'0 0.0
2017-Mar-25 23:32N 53°30' E 009°56'0 0.0
2017-Mar-25 22:32N 53°30' E 009°56'0 0.0
2017-Mar-25 21:32N 53°30' E 009°56'0 0.0
2017-Mar-25 20:32N 53°30' E 009°56'0 0.0
2017-Mar-25 19:32N 53°30' E 009°56'0 0.0
2017-Mar-25 18:32N 53°30' E 009°56'0 0.0
2017-Mar-25 17:32N 53°30' E 009°56'0 0.0
2017-Mar-25 16:32N 53°30' E 009°56'0 0.1
2017-Mar-25 15:32N 53°30' E 009°56'0 0.0
2017-Mar-25 14:32N 53°30' E 009°56'0 0.0
2017-Mar-25 13:32N 53°30' E 009°56'0 0.0
2017-Mar-25 12:32N 53°30' E 009°56'0 0.1
2017-Mar-25 11:32N 53°30' E 009°56'0 0.0
2017-Mar-25 10:32N 53°30' E 009°56'0 0.0
2017-Mar-25 09:32N 53°30' E 009°56'0 0.0
2017-Mar-25 08:32N 53°30' E 009°56'0 0.0
2017-Mar-25 07:32N 53°30' E 009°56'0 0.0
2017-Mar-25 06:32N 53°30' E 009°56'0 0.0
2017-Mar-25 05:32N 53°30' E 009°56'0 0.0
2017-Mar-25 04:32N 53°30' E 009°56'0 0.0
2017-Mar-25 03:32N 53°30' E 009°56'0 0.0
2017-Mar-25 02:32N 53°30' E 009°56'0 0.0
2017-Mar-25 01:32N 53°30' E 009°56'0 0.0
2017-Mar-25 00:32N 53°30' E 009°56'0 0.0
2017-Mar-24 23:32N 53°30' E 009°56'0 0.0
2017-Mar-24 22:33N 53°30' E 009°56'0 0.2
2017-Mar-24 21:33N 53°30' E 009°57'6 6.3
2017-Mar-24 20:33N 53°33' E 009°48'1212.0
2017-Mar-24 19:34N 53°40' E 009°31'1514.9
2017-Mar-24 18:33N 53°52' E 009°16'1111.4
2017-Mar-24 17:33N 53°51' E 008°57'10 9.6
2017-Mar-24 16:33N 53°54' E 008°42'1313.3
2017-Mar-24 15:33N 53°59' E 008°21'1211.6
2017-Mar-24 14:34N 53°58' E 008°02'2416.9
2017-Mar-24 13:10N 53°54' E 007°22'8317.8
2017-Mar-24 08:31N 53°31' E 005°08'3316.8
2017-Mar-24 06:33N 53°08' E 004°28'1717.7
2017-Mar-24 05:33N 52°52' E 004°15'1817.6
2017-Mar-24 04:33N 52°38' E 003°59'1817.9
2017-Mar-24 03:33N 52°20' E 003°52'1717.5
2017-Mar-24 02:33N 52°03' E 003°53'9 9.1
2017-Mar-24 01:34N 51°58' E 004°05'3 3.1
2017-Mar-24 00:33N 51°57' E 003°60'0 0.0
2017-Mar-23 23:30N 51°57' E 003°60'0 0.0
2017-Mar-23 22:31N 51°57' E 003°60'0 0.0
2017-Mar-23 21:33N 51°57' E 003°60'0 0.0
2017-Mar-23 20:33N 51°57' E 003°60'0 0.0
2017-Mar-23 19:33N 51°57' E 003°60'0 0.0
2017-Mar-23 18:30N 51°57' E 003°60'0 0.0
2017-Mar-23 17:33N 51°57' E 003°60'0 0.0
2017-Mar-23 16:33N 51°57' E 003°60'0 0.0
2017-Mar-23 15:33N 51°57' E 003°60'0 0.0
2017-Mar-23 14:33N 51°57' E 003°60'0 0.0
2017-Mar-23 13:33N 51°57' E 003°60'0 0.0
2017-Mar-23 12:33N 51°57' E 003°60'0 0.0
2017-Mar-23 11:33N 51°57' E 003°60'0 0.0
2017-Mar-23 10:33N 51°57' E 003°60'0 0.0
2017-Mar-23 09:33N 51°57' E 003°60'0 0.0
2017-Mar-23 08:33N 51°57' E 003°60'0 0.0
2017-Mar-23 07:33N 51°57' E 003°60'0 0.0
2017-Mar-23 06:33N 51°57' E 003°60'0 0.0
2017-Mar-23 05:31N 51°57' E 003°60'0 0.0
2017-Mar-23 04:31N 51°57' E 003°60'0 0.0
2017-Mar-23 03:33N 51°57' E 003°60'0 0.0
2017-Mar-23 02:33N 51°57' E 003°60'0 0.0
2017-Mar-23 01:33N 51°57' E 003°60'0 0.0
2017-Mar-23 00:33N 51°57' E 003°60'0 0.0
2017-Mar-22 23:33N 51°57' E 003°60'0 0.0
2017-Mar-22 22:31N 51°57' E 003°60'0 0.0
2017-Mar-22 21:33N 51°57' E 003°60'0 0.0
2017-Mar-22 20:33N 51°57' E 003°60'0 0.0
2017-Mar-22 19:31N 51°57' E 003°60'0 0.0
2017-Mar-22 18:33N 51°57' E 003°60'0 0.0
2017-Mar-22 17:33N 51°57' E 003°60'0 0.0
2017-Mar-22 16:33N 51°57' E 003°60'0 0.0
2017-Mar-22 15:33N 51°57' E 003°60'0 0.0
2017-Mar-22 14:32N 51°57' E 003°60'0 0.0
2017-Mar-22 13:32N 51°57' E 003°60'0 0.0
2017-Mar-22 12:32N 51°57' E 003°60'0 0.0
2017-Mar-22 11:32N 51°57' E 003°60'0 0.0
2017-Mar-22 10:32N 51°57' E 003°60'0 0.0
2017-Mar-22 09:29N 51°57' E 003°60'0 0.0
2017-Mar-22 08:32N 51°57' E 003°60'0 0.0
2017-Mar-22 07:32N 51°57' E 003°60'0 0.0
2017-Mar-22 06:32N 51°57' E 003°60'0 0.0
2017-Mar-22 05:29N 51°57' E 003°60'0 0.0
2017-Mar-22 04:32N 51°57' E 003°60'0 0.0
2017-Mar-22 03:32N 51°57' E 003°60'0 0.0
2017-Mar-22 02:32N 51°57' E 003°60'0 0.0
2017-Mar-22 01:32N 51°57' E 003°60'0 0.0
2017-Mar-22 00:32N 51°57' E 003°60'0 0.0
2017-Mar-21 23:32N 51°57' E 003°60'0 0.0
2017-Mar-21 22:32N 51°57' E 003°60'0 0.0
2017-Mar-21 21:31N 51°57' E 003°60'0 0.0
2017-Mar-21 20:32N 51°57' E 003°60'0 0.0
2017-Mar-21 19:32N 51°57' E 003°60'0 0.0
2017-Mar-21 18:33N 51°57' E 003°60'2 1.6
2017-Mar-21 17:33N 51°59' E 004°01'1 1.5
2017-Mar-21 16:33N 51°60' E 003°60'7 7.5
2017-Mar-21 15:33N 52°01' E 003°48'1010.1
2017-Mar-21 14:34N 51°56' E 003°34'0 0.1
2017-Mar-21 11:05N 51°55' E 003°34'0 0.0
2017-Mar-21 06:14N 51°55' E 003°34'0 0.0
2017-Mar-21 05:32N 51°55' E 003°34'0 0.0
2017-Mar-21 04:32N 51°55' E 003°34'0 0.0
2017-Mar-21 03:20N 51°55' E 003°34'0 0.0
2017-Mar-21 02:26N 51°55' E 003°34'0 0.0
2017-Mar-21 01:32N 51°55' E 003°34'0 0.0
2017-Mar-21 00:29N 51°55' E 003°34'0 0.0
2017-Mar-20 23:17N 51°55' E 003°34'0 0.0
2017-Mar-20 22:20N 51°55' E 003°34'0 0.0
2017-Mar-20 21:29N 51°55' E 003°34'0 0.0
2017-Mar-20 20:32N 51°55' E 003°34'0 0.0
2017-Mar-20 19:29N 51°55' E 003°34'0 0.0
2017-Mar-20 18:11N 51°55' E 003°34'0 0.1
2017-Mar-20 17:20N 51°55' E 003°34'0 0.0
2017-Mar-20 16:32N 51°55' E 003°34'0 0.1
2017-Mar-20 15:32N 51°55' E 003°34'0 0.0
2017-Mar-20 14:32N 51°55' E 003°34'0 0.1
2017-Mar-20 13:33N 51°55' E 003°34'4413.7
2017-Mar-20 10:21N 51°41' E 002°27'1317.0
2017-Mar-20 09:33N 51°31' E 002°14'1717.3
2017-Mar-20 08:34N 51°18' E 001°56'1817.6
2017-Mar-20 07:33N 51°04' E 001°38'1817.7
2017-Mar-20 06:33N 50°48' E 001°25'5016.2
2017-Mar-20 03:30N 50°23' E 000°18'1617.3
2017-Mar-20 02:33N 50°19' W 000°07'  
Track history (hours):
 
Tides and Currents Weather Stations Pressure Air Temp Water Temp Dewpoint Dewpoint Depression Visibility Wind Speed Wind Dir Waves Ship Positions

Colombo Express

Last reported at 2017-Mar-30 01:34 UTC. Time now 2017-Mar-30 04:54 UTC.
Position N 50°54' W 001°27'.

Length 335.5 m; beam 42.8 m; draft 14.6 m.

Type: Ship. MMSI: 211433000.

Date/timePositionNaut miles runAvg speedWind from/ knotsBaromVisibWave heightAir tempDewpointWater temp
2017-Mar-30 01:34N 50°54' W 001°27'0 0.0
2017-Mar-29 15:18N 50°54' W 001°27'1 0.9
2017-Mar-29 14:34N 50°54' W 001°26'8 8.1
2017-Mar-29 13:34N 50°48' W 001°18'1313.5
2017-Mar-29 12:34N 50°43' W 000°58'9 9.0
2017-Mar-29 11:34N 50°34' W 001°01'0 0.1
2017-Mar-29 10:32N 50°34' W 001°01'0 0.0
2017-Mar-29 09:29N 50°34' W 001°01'0 0.0
2017-Mar-29 08:32N 50°34' W 001°01'0 0.0
2017-Mar-29 07:32N 50°34' W 001°01'0 0.0
2017-Mar-29 06:32N 50°34' W 001°01'0 0.1
2017-Mar-29 05:32N 50°34' W 001°01'0 0.1
2017-Mar-29 04:29N 50°34' W 001°01'0 0.0
2017-Mar-29 03:32N 50°34' W 001°01'0 0.0
2017-Mar-29 02:32N 50°34' W 001°01'0 0.0
2017-Mar-29 01:32N 50°34' W 001°01'0 0.0
2017-Mar-29 00:32N 50°34' W 001°01'0 0.2
2017-Mar-28 23:32N 50°34' W 001°01'0 0.0
2017-Mar-28 22:31N 50°34' W 001°01'0 0.0
2017-Mar-28 21:31N 50°34' W 001°01'0 0.0
2017-Mar-28 20:31N 50°34' W 001°01'0 0.0
2017-Mar-28 19:31N 50°34' W 001°01'0 0.0
2017-Mar-28 18:31N 50°34' W 001°01'0 0.1
2017-Mar-28 17:31N 50°34' W 001°01'0 0.1
2017-Mar-28 16:31N 50°34' W 001°01'0 0.0
2017-Mar-28 15:31N 50°34' W 001°01'0 0.0
2017-Mar-28 14:31N 50°34' W 001°01'0 0.0
2017-Mar-28 13:31N 50°34' W 001°01'0 0.0
2017-Mar-28 12:31N 50°34' W 001°01'0 0.1
2017-Mar-28 11:31N 50°34' W 001°01'0 0.0
2017-Mar-28 10:32N 50°34' W 001°01'0 0.0
2017-Mar-28 09:32N 50°34' W 001°01'0 0.0
2017-Mar-28 08:32N 50°34' W 001°01'0 0.0
2017-Mar-28 07:32N 50°34' W 001°01'0 0.0
2017-Mar-28 06:31N 50°34' W 001°01'0 0.1
2017-Mar-28 05:33N 50°34' W 001°01'0 0.1
2017-Mar-28 04:31N 50°34' W 001°01'0 0.0
2017-Mar-28 03:34N 50°34' W 001°01'4 4.0
2017-Mar-28 02:33N 50°32' W 000°55'2019.8
2017-Mar-28 01:33N 50°33' W 000°24'1919.2
2017-Mar-28 00:33N 50°33' E 000°06'1818.5
2017-Mar-27 23:33N 50°37' E 000°35'1717.4
2017-Mar-27 22:33N 50°47' E 000°56'1717.3
2017-Mar-27 21:33N 50°59' E 001°17'2019.6
2017-Mar-27 20:33N 51°11' E 001°41'2120.6
2017-Mar-27 19:33N 51°28' E 001°59'2020.0
2017-Mar-27 18:33N 51°43' E 002°21'1919.0
2017-Mar-27 17:33N 51°58' E 002°41'1817.6
2017-Mar-27 16:33N 52°11' E 002°60'1716.7
2017-Mar-27 15:32N 52°25' E 003°16'1616.2
2017-Mar-27 14:32N 52°38' E 003°31'1616.4
2017-Mar-27 13:33N 52°50' E 003°49'1817.6
2017-Mar-27 12:33N 53°03' E 004°09'1818.4
2017-Mar-27 11:33N 53°16' E 004°29'1717.4
2017-Mar-27 10:33N 53°31' E 004°46'1818.2
2017-Mar-27 09:33N 53°38' E 005°14'1717.0
2017-Mar-27 08:33N 53°43' E 005°41'1616.3
2017-Mar-27 07:33N 53°48' E 006°08'1616.3
2017-Mar-27 06:33N 53°52' E 006°34'1716.9
2017-Mar-27 05:32N 53°57' E 007°03'1818.0
2017-Mar-27 04:33N 54°01' E 007°32'1918.6
2017-Mar-27 03:33N 54°01' E 008°03'1818.4
2017-Mar-27 02:33N 53°58' E 008°34'1514.6
2017-Mar-27 01:34N 53°51' E 008°56'1211.8
2017-Mar-27 00:33N 53°52' E 009°15'1212.2
2017-Mar-26 23:34N 53°43' E 009°28'10 9.8
2017-Mar-26 22:33N 53°35' E 009°38'8 7.6
2017-Mar-26 21:33N 53°33' E 009°50'4 3.9
2017-Mar-26 20:33N 53°32' E 009°56'2 1.8
2017-Mar-26 19:32N 53°30' E 009°56'0 0.0
2017-Mar-26 18:32N 53°30' E 009°56'0 0.0
2017-Mar-26 17:32N 53°30' E 009°56'0 0.0
2017-Mar-26 16:32N 53°30' E 009°56'0 0.0
2017-Mar-26 15:32N 53°30' E 009°56'0 0.0
2017-Mar-26 14:32N 53°30' E 009°56'0 0.0
2017-Mar-26 13:32N 53°30' E 009°56'0 0.0
2017-Mar-26 12:32N 53°30' E 009°56'0 0.0
2017-Mar-26 11:32N 53°30' E 009°56'0 0.0
2017-Mar-26 10:32N 53°30' E 009°56'0 0.0
2017-Mar-26 09:32N 53°30' E 009°56'0 0.0
2017-Mar-26 08:32N 53°30' E 009°56'0 0.0
2017-Mar-26 07:32N 53°30' E 009°56'0 0.0
2017-Mar-26 06:32N 53°30' E 009°56'0 0.0
2017-Mar-26 05:32N 53°30' E 009°56'0 0.1
2017-Mar-26 04:32N 53°30' E 009°56'0 0.1
2017-Mar-26 03:32N 53°30' E 009°56'0 0.0
2017-Mar-26 02:32N 53°30' E 009°56'0 0.0
2017-Mar-26 01:32N 53°30' E 009°56'0 0.0
2017-Mar-26 00:32N 53°30' E 009°56'0 0.0
2017-Mar-25 23:32N 53°30' E 009°56'0 0.0
2017-Mar-25 22:32N 53°30' E 009°56'0 0.0
2017-Mar-25 21:32N 53°30' E 009°56'0 0.0
2017-Mar-25 20:32N 53°30' E 009°56'0 0.0
2017-Mar-25 19:32N 53°30' E 009°56'0 0.0
2017-Mar-25 18:32N 53°30' E 009°56'0 0.0
2017-Mar-25 17:32N 53°30' E 009°56'0 0.0
2017-Mar-25 16:32N 53°30' E 009°56'0 0.1
2017-Mar-25 15:32N 53°30' E 009°56'0 0.0
2017-Mar-25 14:32N 53°30' E 009°56'0 0.0
2017-Mar-25 13:32N 53°30' E 009°56'0 0.0
2017-Mar-25 12:32N 53°30' E 009°56'0 0.1
2017-Mar-25 11:32N 53°30' E 009°56'0 0.0
2017-Mar-25 10:32N 53°30' E 009°56'0 0.0
2017-Mar-25 09:32N 53°30' E 009°56'0 0.0
2017-Mar-25 08:32N 53°30' E 009°56'0 0.0
2017-Mar-25 07:32N 53°30' E 009°56'0 0.0
2017-Mar-25 06:32N 53°30' E 009°56'0 0.0
2017-Mar-25 05:32N 53°30' E 009°56'0 0.0
2017-Mar-25 04:32N 53°30' E 009°56'0 0.0
2017-Mar-25 03:32N 53°30' E 009°56'0 0.0
2017-Mar-25 02:32N 53°30' E 009°56'0 0.0
2017-Mar-25 01:32N 53°30' E 009°56'0 0.0
2017-Mar-25 00:32N 53°30' E 009°56'0 0.0
2017-Mar-24 23:32N 53°30' E 009°56'0 0.0
2017-Mar-24 22:33N 53°30' E 009°56'0 0.2
2017-Mar-24 21:33N 53°30' E 009°57'6 6.3
2017-Mar-24 20:33N 53°33' E 009°48'1212.0
2017-Mar-24 19:34N 53°40' E 009°31'1514.9
2017-Mar-24 18:33N 53°52' E 009°16'1111.4
2017-Mar-24 17:33N 53°51' E 008°57'10 9.6
2017-Mar-24 16:33N 53°54' E 008°42'1313.3
2017-Mar-24 15:33N 53°59' E 008°21'1211.6
2017-Mar-24 14:34N 53°58' E 008°02'2416.9
2017-Mar-24 13:10N 53°54' E 007°22'8317.8
2017-Mar-24 08:31N 53°31' E 005°08'3316.8
2017-Mar-24 06:33N 53°08' E 004°28'1717.7
2017-Mar-24 05:33N 52°52' E 004°15'1817.6
2017-Mar-24 04:33N 52°38' E 003°59'1817.9
2017-Mar-24 03:33N 52°20' E 003°52'1717.5
2017-Mar-24 02:33N 52°03' E 003°53'9 9.1
2017-Mar-24 01:34N 51°58' E 004°05'3 3.1
2017-Mar-24 00:33N 51°57' E 003°60'0 0.0
2017-Mar-23 23:30N 51°57' E 003°60'0 0.0
2017-Mar-23 22:31N 51°57' E 003°60'0 0.0
2017-Mar-23 21:33N 51°57' E 003°60'0 0.0
2017-Mar-23 20:33N 51°57' E 003°60'0 0.0
2017-Mar-23 19:33N 51°57' E 003°60'0 0.0
2017-Mar-23 18:30N 51°57' E 003°60'0 0.0
2017-Mar-23 17:33N 51°57' E 003°60'0 0.0
2017-Mar-23 16:33N 51°57' E 003°60'0 0.0
2017-Mar-23 15:33N 51°57' E 003°60'0 0.0
2017-Mar-23 14:33N 51°57' E 003°60'0 0.0
2017-Mar-23 13:33N 51°57' E 003°60'0 0.0
2017-Mar-23 12:33N 51°57' E 003°60'0 0.0
2017-Mar-23 11:33N 51°57' E 003°60'0 0.0
2017-Mar-23 10:33N 51°57' E 003°60'0 0.0
2017-Mar-23 09:33N 51°57' E 003°60'0 0.0
2017-Mar-23 08:33N 51°57' E 003°60'0 0.0
2017-Mar-23 07:33N 51°57' E 003°60'0 0.0
2017-Mar-23 06:33N 51°57' E 003°60'0 0.0
2017-Mar-23 05:31N 51°57' E 003°60'0 0.0
2017-Mar-23 04:31N 51°57' E 003°60'0 0.0
2017-Mar-23 03:33N 51°57' E 003°60'0 0.0
2017-Mar-23 02:33N 51°57' E 003°60'0 0.0
2017-Mar-23 01:33N 51°57' E 003°60'0 0.0
2017-Mar-23 00:33N 51°57' E 003°60'0 0.0
2017-Mar-22 23:33N 51°57' E 003°60'0 0.0
2017-Mar-22 22:31N 51°57' E 003°60'0 0.0
2017-Mar-22 21:33N 51°57' E 003°60'0 0.0
2017-Mar-22 20:33N 51°57' E 003°60'0 0.0
2017-Mar-22 19:31N 51°57' E 003°60'0 0.0
2017-Mar-22 18:33N 51°57' E 003°60'0 0.0
2017-Mar-22 17:33N 51°57' E 003°60'0 0.0
2017-Mar-22 16:33N 51°57' E 003°60'0 0.0
2017-Mar-22 15:33N 51°57' E 003°60'0 0.0
2017-Mar-22 14:32N 51°57' E 003°60'0 0.0
2017-Mar-22 13:32N 51°57' E 003°60'0 0.0
2017-Mar-22 12:32N 51°57' E 003°60'0 0.0
2017-Mar-22 11:32N 51°57' E 003°60'0 0.0
2017-Mar-22 10:32N 51°57' E 003°60'0 0.0
2017-Mar-22 09:29N 51°57' E 003°60'0 0.0
2017-Mar-22 08:32N 51°57' E 003°60'0 0.0
2017-Mar-22 07:32N 51°57' E 003°60'0 0.0
2017-Mar-22 06:32N 51°57' E 003°60'0 0.0
2017-Mar-22 05:29N 51°57' E 003°60'0 0.0
2017-Mar-22 04:32N 51°57' E 003°60'0 0.0
2017-Mar-22 03:32N 51°57' E 003°60'0 0.0
2017-Mar-22 02:32N 51°57' E 003°60'0 0.0
2017-Mar-22 01:32N 51°57' E 003°60'0 0.0
2017-Mar-22 00:32N 51°57' E 003°60'0 0.0
2017-Mar-21 23:32N 51°57' E 003°60'0 0.0
2017-Mar-21 22:32N 51°57' E 003°60'0 0.0
2017-Mar-21 21:31N 51°57' E 003°60'0 0.0
2017-Mar-21 20:32N 51°57' E 003°60'0 0.0
2017-Mar-21 19:32N 51°57' E 003°60'0 0.0
2017-Mar-21 18:33N 51°57' E 003°60'2 1.6
2017-Mar-21 17:33N 51°59' E 004°01'1 1.5
2017-Mar-21 16:33N 51°60' E 003°60'7 7.5
2017-Mar-21 15:33N 52°01' E 003°48'1010.1
2017-Mar-21 14:34N 51°56' E 003°34'0 0.1
2017-Mar-21 11:05N 51°55' E 003°34'0 0.0
2017-Mar-21 06:14N 51°55' E 003°34'0 0.0
2017-Mar-21 05:32N 51°55' E 003°34'0 0.0
2017-Mar-21 04:32N 51°55' E 003°34'0 0.0
2017-Mar-21 03:20N 51°55' E 003°34'0 0.0
2017-Mar-21 02:26N 51°55' E 003°34'0 0.0
2017-Mar-21 01:32N 51°55' E 003°34'0 0.0
2017-Mar-21 00:29N 51°55' E 003°34'0 0.0
2017-Mar-20 23:17N 51°55' E 003°34'0 0.0
2017-Mar-20 22:20N 51°55' E 003°34'0 0.0
2017-Mar-20 21:29N 51°55' E 003°34'0 0.0
2017-Mar-20 20:32N 51°55' E 003°34'0 0.0
2017-Mar-20 19:29N 51°55' E 003°34'0 0.0
2017-Mar-20 18:11N 51°55' E 003°34'0 0.1
2017-Mar-20 17:20N 51°55' E 003°34'0 0.0
2017-Mar-20 16:32N 51°55' E 003°34'0 0.1
2017-Mar-20 15:32N 51°55' E 003°34'0 0.0
2017-Mar-20 14:32N 51°55' E 003°34'0 0.1
2017-Mar-20 13:33N 51°55' E 003°34'4413.7
2017-Mar-20 10:21N 51°41' E 002°27'1317.0
2017-Mar-20 09:33N 51°31' E 002°14'1717.3
2017-Mar-20 08:34N 51°18' E 001°56'1817.6
2017-Mar-20 07:33N 51°04' E 001°38'1817.7
2017-Mar-20 06:33N 50°48' E 001°25'5016.2
2017-Mar-20 03:30N 50°23' E 000°18'1617.3
2017-Mar-20 02:33N 50°19' W 000°07'  

Dump ship's entire track history